Friday, May 06, 2016
05:28 UTC
  |  Log In   |  Register Free
Airport Search:

John F Kennedy Memorial Airport
(KASX)

John F Kennedy Memorial Airport Diagram
No Airport Diagram Available

FAA data valid effective Mar 31 2016 - May 26 2016 (unless otherwise noted).

 
 
 
 
 
 
 
 
 
 
 
 
 
 
Current Aviation Weather for KASX

Weather Summary


The most recent METAR observation for ASX was updated at: 12:53 UTC
METAR for KASX is not available. Closest METAR is for KIWD
KASX  (most recent observation was updatred at 60:45 UTC)
060453Z AUTO 20005KT 10SM FEW120 16/04 A2981 RMK AO2 SLP093 T01560044 PWINO PNO $

KIWD  (32.6 nm NW)   (most recent observation was updated at 60:51 UTC)
060515Z 20007KT 10SM 15/04 A2981 RMK AO1

TAF for KASX is not available.
KIWD  (32.6 nm NW)   (most recent observation was updatred at 52:33 UTC)
052338Z 0600/0624 22008KT P6SM SCT150 FM061000 22004KT P6SM SKC FM061500 24008KT P6SM SKC FM061900 24012G17KT P6SM SKC


GlobalAir.com is loading additional information.
 Current Weather at ASX
62.0 F° (16.7 C°)

South winds at 9.2 mph
Pressure:
29.81 in
Humidity:
44%
Wind:
South at 9.2 mph
Dew Point:
39.9 F° (4.4 C°)
Visibility:
10.00 mi
ASX NOAA Radar




Find All Airport Services Find A Hotel Find A Rental Car Find A Golf Course Find A Restaurant $100 Hamburger



Airport Weather Forecast for KASX

Translated METAR for KASX (0453 UTC)
METAR:
KASX 060453Z AUTO 20005KT 10SM FEW120 16/04 A2981 RMK AO2 SLP093 T01560044 PWINO PNO $
Conditions at:
KASX (John F Kennedy Memorial, WI) observed 0453 UTC 06 May 2016
Temperature:
16°C (60.8°F)
Dewpoint:
4°C (39.2°F) [RH = 44.8]
Pressure:
29.81 inches Hg (1009.5 mb)
pressure at sea level is 93 in Hg
Winds:
from the SSW (200 degrees) at 5.8 mph (5 knots: 2.6 m/s)
Visibility:
10 mile(s)
Ceiling:
at least 12,000 feet AGL
Clouds:
Few Clouds at 12,000 feet AGL
Remarks:
site is un-manned
SOME DATA ABOVE MAY BE INACCURATE!!!
"$" is an indication the sensor requires maintenance
site is automated and HAS a precipitation sensor
precipitation identifier sensor not available

Translated TAF for KIWD (Gogebic-Iron County, MI) (2338 UTC)
TAF text:
KIWD 052338Z 0600/0624 22008KT P6SM SCT150
Forecast period:
Friday May 06 2016 00:00 UTC - Friday May 06 2016 24:00 UTC
Forecast type:
FROM: standard forecast or significant change
Winds:
from the SW (220 degrees) at 9.2 mph (8 knots: 4.1 m/s)
Visibility:
6 or more mile(s) (9.7+ km)
Ceiling:
at least 12,000 feet AGL
Clouds:
Scattered Clouds at 15,000 feet AGL
Weather:
no significant weather observed at this time
TAF text:
FM061000 22004KT P6SM SKC
Forecast period:
Friday May 06 2016 10:00 UTC - Friday May 06 2016 15:00 UTC
Forecast type:
FROM: standard forecast or significant change
Winds:
from the SW (220 degrees) at 4.6 mph (4 knots: 2.1 m/s)
Visibility:
6 or more mile(s) (9.7+ km)
Ceiling:
at least 12,000 feet AGL
Clouds:
Clear Skies
Weather:
no significant weather observed at this time
TAF text:
FM061500 24008KT P6SM SKC
Forecast period:
Friday May 06 2016 15:00 UTC - Friday May 06 2016 19:00 UTC
Forecast type:
FROM: standard forecast or significant change
Winds:
from the WSW (240 degrees) at 9.2 mph (8 knots: 4.1 m/s)
Visibility:
6 or more mile(s) (9.7+ km)
Ceiling:
at least 12,000 feet AGL
Clouds:
Clear Skies
Weather:
no significant weather observed at this time
TAF text:
FM061900 24012G17KT P6SM SKC
Forecast period:
Friday May 06 2016 19:00 UTC - Friday May 06 2016 24:00 UTC
Forecast type:
FROM: standard forecast or significant change
Winds:
from the WSW (240 degrees) at 13.8 mph (12 knots: 6.2 m/s)
gusting to 19.6 mph (17 knots: 8.7 m/s)
Visibility:
6 or more mile(s) (9.7+ km)
Ceiling:
at least 12,000 feet AGL
Clouds:
Clear Skies
Weather:
no significant weather observed at this time
FBO's on the Field
FBO Company Facility Photos Services Transportation Aviation Fuel Prices: Prices include tax
Catering Weather Repair Courtesy Rental Type 100LL JetA JetA+ MOGAS 8087
 
John F Kennedy Memorial Airport

This FBO has not yet been rated
FS:Phillips 66
Last Updated: Apr-25
Login to update fuel prices
SS:
Contact John F Kennedy Memorial AirportMore FBO Information
 
Add another FBO Facility Photos Catering Weather Repair Courtesy Rental Type 100LL JetA JetA+ MOGAS 8087
Services Transportation Aviation Fuel Prices: Prices include tax


model-print
model-print
model-print
model-print